PDT,Max TemperatureF,Mean TemperatureF,Min TemperatureF,Max Dew PointF,MeanDew PointF,Min DewpointF,Max Humidity, Mean Humidity, Min Humidity, Max Sea Level PressureIn, Mean Sea Level PressureIn, Min Sea Level PressureIn, Max VisibilityMiles, Mean VisibilityMiles, Min VisibilityMiles, Max Wind SpeedMPH, Mean Wind SpeedMPH, Max Gust SpeedMPH,PrecipitationIn, CloudCover, Events, WindDirDegrees
2013-4-1,54,52,50,52,51,48,100,97,93,30.23,30.16,30.07,10,8,2,10,5,,0.00,8,,247
2013-4-2,55,52,48,52,48,46,100,94,83,30.26,30.22,30.19,10,9,0,13,5,,0.02,7,,325
2013-4-3,54,50,46,52,49,46,100,97,89,30.20,30.08,29.93,10,6,0,12,4,,0.01,6,,283
2013-4-4,57,54,50,55,53,50,100,98,93,29.96,29.85,29.74,10,8,2,20,10,33,0.84,8,,195
2013-4-5,55,54,52,54,52,50,100,94,86,30.04,29.99,29.91,10,9,2,17,12,30,0.29,8,,194
2013-4-6,57,54,50,52,51,48,96,92,80,30.08,29.99,29.79,10,9,5,22,12,35,0.24,8,,200
2013-4-7,54,49,43,52,45,39,100,89,71,30.07,29.96,29.79,10,9,2,27,12,40,0.52,7,,230
2013-4-8,54,48,41,46,43,41,100,88,71,30.34,30.23,30.07,10,10,8,15,7,20,0.05,5,,75
2013-4-9,59,51,43,48,45,41,100,84,53,30.36,30.33,30.30,10,10,8,10,4,,0.00,4,,161
2013-4-10,55,50,45,54,48,43,100,95,83,30.38,30.33,30.29,10,8,2,13,7,18,0.03,7,,149
2013-4-11,54,47,39,46,43,37,100,87,66,30.39,30.30,30.19,10,10,1,22,10,29,0.00,3,,15
2013-4-12,54,47,39,48,44,37,100,90,77,30.19,30.07,30.01,10,6,0,14,6,25,0.05,6,,218
2013-4-13,52,46,39,43,40,37,100,76,61,30.19,30.15,30.08,10,10,7,12,8,18,0.01,6,,331
2013-4-14,50,45,39,43,40,37,100,88,76,30.18,30.07,30.00,10,10,9,13,7,17,0.04,7,,262
2013-4-15,52,46,39,43,41,39,100,85,66,30.24,30.10,30.02,10,10,5,16,7,21,0.42,6,,18
2013-4-16,54,46,37,45,42,37,100,84,66,30.44,30.34,30.24,10,10,9,15,7,20,0.02,6,,9
2013-4-17,55,51,46,46,45,43,93,82,71,30.53,30.49,30.44,10,10,10,17,8,22,0.00,6,,9
2013-4-18,55,52,48,50,46,43,100,82,66,30.51,30.47,30.41,10,10,4,15,9,18,0.00,5,,1
2013-4-19,54,51,48,54,50,46,100,98,93,30.41,30.36,30.32,10,6,1,12,7,21,0.15,8,,249
2013-4-20,55,52,48,50,48,45,100,88,72,30.40,30.37,30.32,10,9,2,17,10,23,0.01,6,,354
2013-4-21,57,52,46,48,46,43,93,83,67,30.35,30.32,30.27,10,10,5,10,6,17,0.00,7,,8
2013-4-22,64,55,46,48,46,39,100,75,55,30.33,30.29,30.23,10,10,9,25,12,32,0.00,2,,7
2013-4-23,63,53,43,46,42,37,93,68,42,30.27,30.21,30.16,10,10,10,28,13,35,0.00,0,,1
2013-4-24,75,57,39,46,41,30,100,65,25,30.19,30.06,29.96,10,10,6,28,10,35,0.00,0,,21
2013-4-25,59,49,39,52,47,37,100,88,62,30.19,30.09,30.01,10,9,4,20,9,25,0.00,0,,346
2013-4-26,57,52,46,52,48,45,100,95,83,30.33,30.25,30.19,10,7,0,16,5,,0.00,6,,320
2013-4-27,55,50,45,48,47,45,100,90,77,30.36,30.32,30.29,10,9,0,14,7,17,0.00,6,,352
2013-4-28,59,55,50,54,50,46,96,88,75,30.34,30.29,30.23,10,10,7,15,6,20,0.00,5,,340
2013-4-29,57,52,46,52,47,37,100,83,51,30.26,30.23,30.19,10,8,1,23,13,29,0.02,4,,342
2013-4-30,54,48,41,43,39,34,93,71,46,30.42,30.34,30.27,10,10,10,28,14,36,0.00,1,,13